»·PEaware :: N713AG KSNA-KLGF

N713AG :: KSNA-KLGF

FLIGHT INFORMATION

Flight Status: Arrived
Operator: Privately registered:
United States
More flights under this callsign
Pilot: Sanjiv S. (4490)
Aircraft: SOCATA TBM-900
(TBM9)
More flights by this aircraft type
Origin: KSNA John Wayne-Orange Co
United States
Destination: KLGF Laguna AAF
United States
More flights between these airports :: More routes between these airports
Route: +PIGGN2 TCATE IPL V458 BZA
File this flight plan on PilotEdge
Remarks:
Altitude:
(Current/Filed)
19,000ft
Speed:
(Current/Filed)
270kts
Departed: 18-Nov-18 10:01 AM
Arrived: 18-Nov-18 11:11 AM
Distance/Time
Traveled:
181nm/1:10
Distance/Time
To Go:
Arrived

Flight Plot

Page will automatically refresh every two minutes.

Flight plan parsing failed; only flown route is shown


Map Options




Map Legend


Flown Route
Filed Route
Departure Airport
Arrival Airport
Navaid (VOR, NDB)
Fix

Horizontal Profiles

Position Reports

Time Latitude Longitude Heading Altitude Ground
Speed
18-Nov-18 09:27 33.670628 -117.875503 201 59ft 0kts
18-Nov-18 09:28 33.670628 -117.875503 201 59ft 0kts
18-Nov-18 09:29 33.670628 -117.875503 201 59ft 0kts
18-Nov-18 09:30 33.670628 -117.875503 201 59ft 0kts
18-Nov-18 09:31 33.670628 -117.875503 201 59ft 0kts
18-Nov-18 09:32 33.670628 -117.875503 201 59ft 0kts
18-Nov-18 09:33 33.670628 -117.875503 201 59ft 0kts
18-Nov-18 09:34 33.670628 -117.875503 201 59ft 0kts
18-Nov-18 09:35 33.670628 -117.875503 201 59ft 0kts
18-Nov-18 09:36 33.670628 -117.875503 201 59ft 0kts
18-Nov-18 09:37 33.670628 -117.875503 201 59ft 0kts
18-Nov-18 09:38 33.670628 -117.875503 201 59ft 0kts
18-Nov-18 09:39 33.670628 -117.875503 201 59ft 0kts
18-Nov-18 09:40 33.670628 -117.875503 201 59ft 0kts
18-Nov-18 09:41 33.670628 -117.875503 201 59ft 0kts
18-Nov-18 09:42 33.670628 -117.875503 201 59ft 0kts
18-Nov-18 09:43 33.670628 -117.875503 201 59ft 0kts
18-Nov-18 09:44 33.670628 -117.875503 201 59ft 0kts
18-Nov-18 09:45 33.670628 -117.875504 201 59ft 0kts
18-Nov-18 09:46 33.670628 -117.875504 201 59ft 0kts
18-Nov-18 09:47 33.669649 -117.875972 201 59ft 8kts
18-Nov-18 09:48 33.669388 -117.876101 202 59ft 0kts
18-Nov-18 09:49 33.669320 -117.876134 202 59ft 0kts
18-Nov-18 09:50 33.669055 -117.876268 202 59ft 0kts
18-Nov-18 09:51 33.669164 -117.876213 202 59ft 1kts
18-Nov-18 09:52 33.669550 -117.876014 206 58ft 1kts
18-Nov-18 09:53 33.669998 -117.875778 197 59ft 1kts
18-Nov-18 09:54 33.670192 -117.875582 102 59ft 5kts
18-Nov-18 09:55 33.670205 -117.873833 24 59ft 11kts
18-Nov-18 09:56 33.673225 -117.871890 29 59ft 19kts
18-Nov-18 09:57 33.676812 -117.869605 28 59ft 21kts
18-Nov-18 09:58 33.680671 -117.867330 28 59ft 19kts
18-Nov-18 09:59 33.681914 -117.865986 101 59ft 0kts
18-Nov-18 10:00 33.681914 -117.865986 102 59ft 0kts
18-Nov-18 10:01 33.681914 -117.865986 102 59ft 0kts
18-Nov-18 10:02 33.681912 -117.865977 101 59ft 0kts
18-Nov-18 10:03 33.681215 -117.865312 201 59ft 0kts
18-Nov-18 10:04 33.672295 -117.870856 209 70ft 121kts
18-Nov-18 10:05 33.651090 -117.893181 233 1113ft 140kts
18-Nov-18 10:06 33.627838 -117.899459 165 2536ft 126kts
18-Nov-18 10:07 33.602218 -117.893724 187 3687ft 133kts
18-Nov-18 10:08 33.572581 -117.898497 170 4479ft 161kts
18-Nov-18 10:09 33.541061 -117.880222 151 5244ft 183kts
18-Nov-18 10:10 33.509179 -117.859355 135 6123ft 190kts
18-Nov-18 10:11 33.502316 -117.845480 115 6513ft 186kts
18-Nov-18 10:12 33.485295 -117.801628 114 8021ft 177kts
18-Nov-18 10:13 33.476328 -117.758607 84 9492ft 178kts
18-Nov-18 10:14 33.479714 -117.714970 84 10907ft 172kts
18-Nov-18 10:15 33.491775 -117.675806 59 12323ft 163kts
18-Nov-18 10:16 33.508143 -117.641464 60 13033ft 191kts
18-Nov-18 10:17 33.528523 -117.598653 60 13062ft 230kts
18-Nov-18 10:18 33.549779 -117.553983 59 14280ft 204kts
18-Nov-18 10:19 33.569216 -117.513086 59 15512ft 188kts
18-Nov-18 10:20 33.579145 -117.470712 109 16825ft 182kts
18-Nov-18 10:21 33.566411 -117.429287 110 18085ft 176kts
18-Nov-18 10:22 33.552987 -117.386460 110 18984ft 188kts
18-Nov-18 10:23 33.538542 -117.340484 110 19176ft 231kts
18-Nov-18 10:24 33.520478 -117.283048 110 19162ft 260kts
18-Nov-18 10:25 33.496297 -117.223570 137 19144ft 273kts
18-Nov-18 10:26 33.454310 -117.178327 137 19149ft 279kts
18-Nov-18 10:27 33.410347 -117.130623 137 19147ft 282kts
18-Nov-18 10:28 33.368052 -117.084755 137 19146ft 283kts
18-Nov-18 10:29 33.328069 -117.041452 137 19146ft 283kts
18-Nov-18 10:30 33.284166 -116.993966 137 19146ft 283kts
18-Nov-18 10:31 33.240023 -116.946289 137 19146ft 283kts
18-Nov-18 10:32 33.195700 -116.898486 137 19146ft 284kts
18-Nov-18 10:33 33.151060 -116.850409 137 19146ft 284kts
18-Nov-18 10:34 33.108506 -116.804644 137 19146ft 284kts
18-Nov-18 10:35 33.063240 -116.756029 137 19146ft 284kts
18-Nov-18 10:36 33.018395 -116.707937 137 19146ft 284kts
18-Nov-18 10:37 32.971865 -116.658110 137 19146ft 284kts
18-Nov-18 10:38 32.926543 -116.609647 137 19146ft 284kts
18-Nov-18 10:39 32.881985 -116.562072 137 19146ft 284kts
18-Nov-18 10:40 32.837359 -116.514490 137 19146ft 284kts
18-Nov-18 10:41 32.806641 -116.456207 94 19173ft 282kts
18-Nov-18 10:42 32.802548 -116.386605 93 19147ft 283kts
18-Nov-18 10:43 32.798675 -116.319758 94 19146ft 284kts
18-Nov-18 10:44 32.794259 -116.244200 94 19146ft 284kts
18-Nov-18 10:45 32.789898 -116.170349 94 19146ft 284kts
18-Nov-18 10:46 32.785796 -116.101600 94 18929ft 290kts
18-Nov-18 10:47 32.781540 -116.030814 94 18089ft 301kts
18-Nov-18 10:48 32.779689 -116.000279 94 17698ft 305kts
18-Nov-18 10:49 32.775159 -115.926021 94 16623ft 312kts
18-Nov-18 10:50 32.770414 -115.849016 94 15514ft 314kts
18-Nov-18 10:51 32.765595 -115.771620 94 14395ft 312kts
18-Nov-18 10:52 32.760765 -115.694810 94 13268ft 309kts
18-Nov-18 10:53 32.756087 -115.621207 94 12280ft 297kts
18-Nov-18 10:54 32.751507 -115.549499 94 10982ft 275kts
18-Nov-18 10:55 32.749573 -115.479420 87 9558ft 268kts
18-Nov-18 10:56 32.751244 -115.411602 87 8167ft 264kts
18-Nov-18 10:57 32.752832 -115.345138 88 6791ft 261kts
18-Nov-18 10:58 32.754516 -115.272916 88 5283ft 260kts
18-Nov-18 10:59 32.756097 -115.203274 88 4131ft 250kts
18-Nov-18 11:00 32.757611 -115.134799 88 3476ft 252kts
18-Nov-18 11:01 32.759085 -115.066563 88 2825ft 252kts
18-Nov-18 11:02 32.760518 -114.998625 88 2242ft 250kts
18-Nov-18 11:03 32.761952 -114.928682 88 1996ft 243kts
18-Nov-18 11:04 32.763242 -114.864021 88 1999ft 238kts
18-Nov-18 11:05 32.764552 -114.796649 88 1999ft 236kts
18-Nov-18 11:06 32.765783 -114.731579 88 1999ft 235kts
18-Nov-18 11:07 32.767020 -114.664087 88 1999ft 236kts
18-Nov-18 11:08 32.769361 -114.599041 70 1975ft 237kts
18-Nov-18 11:09 32.790261 -114.539265 73 2003ft 235kts
18-Nov-18 11:10 32.802301 -114.477019 81 1975ft 207kts
18-Nov-18 11:11 32.808491 -114.426197 81 1982ft 165kts
18-Nov-18 11:12 32.819753 -114.392122 343 1295ft 130kts
18-Nov-18 11:13 32.846694 -114.399580 12 585ft 90kts
18-Nov-18 11:14 32.864758 -114.395495 309 381ft 14kts
18-Nov-18 11:15 32.865805 -114.396411 12 382ft 10kts
18-Nov-18 11:16 32.866342 -114.397005 189 382ft 0kts
18-Nov-18 11:17 32.866342 -114.397005 189 382ft 0kts

Navigation Log

Ident Type
Flight plan parsing failed, navigation log unavailable